Terminal Aerodrome Forecast
Issued by NWS Brownsville, TX

Home | Current Version | Previous Version | Text Only | Print | Product List | Glossary On
Versions: 1 2 3 4 5 6 7 8 9 10 11 12 13 14 15 16 17 18 19
000
FTUS44 KBRO 291120
TAFMFE
TAF
KMFE 291120Z 2912/3012 14008KT P6SM FEW010 BKN018
      TEMPO 2912/2914 6SM HZ FEW015 BKN026
     FM291500 16015G22KT P6SM SCT020
     FM300300 15012KT P6SM BKN020
     FM300600 15006KT 6SM HZ BKN015=

USA.gov is the U.S. government's official web portal to all federal, state and local government web resources and services.